createdAt,value
2022-11-13T00:00:05.783Z,5.03
2022-11-13T00:05:01.879Z,4.93
2022-11-13T00:07:28.682Z,5.30
2022-11-13T00:09:55.328Z,5.80
2022-11-13T00:12:22.009Z,4.85
2022-11-13T00:14:48.551Z,5.53
2022-11-13T00:17:15.094Z,5.28
2022-11-13T00:19:42.044Z,5.38
2022-11-13T00:22:08.580Z,5.30
2022-11-13T00:24:35.151Z,4.82
2022-11-13T00:27:01.788Z,4.93
2022-11-13T00:29:28.347Z,4.82
2022-11-13T00:31:54.987Z,4.38
2022-11-13T00:37:08.099Z,4.68
2022-11-13T00:39:34.638Z,4.50
2022-11-13T00:42:01.207Z,3.80
2022-11-13T00:44:27.751Z,4.65
2022-11-13T00:46:54.303Z,4.47
2022-11-13T00:49:20.862Z,4.28
2022-11-13T00:51:47.486Z,4.32
2022-11-13T00:54:14.066Z,4.90
2022-11-13T00:56:40.643Z,4.50
2022-11-13T00:59:07.324Z,4.30
2022-11-13T01:01:33.961Z,4.10
2022-11-13T01:04:00.575Z,4.45
2022-11-13T01:06:28.030Z,4.68
2022-11-13T01:08:55.952Z,4.53
2022-11-13T01:11:25.587Z,4.47
2022-11-13T01:13:53.170Z,4.20
2022-11-13T01:16:22.789Z,4.30
2022-11-13T01:18:49.560Z,4.32
2022-11-13T01:21:21.430Z,4.95
2022-11-13T01:23:48.380Z,4.78
2022-11-13T01:26:20.790Z,4.82
2022-11-13T01:28:47.406Z,4.90
2022-11-13T01:31:16.881Z,5.30
2022-11-13T01:33:44.479Z,5.22
2022-11-13T01:36:13.694Z,5.53
2022-11-13T01:38:40.235Z,5.38
2022-11-13T01:41:07.535Z,4.88
2022-11-13T01:43:36.653Z,5.22
2022-11-13T01:46:09.249Z,4.82
2022-11-13T01:48:41.881Z,5.22
2022-11-13T01:51:28.209Z,4.88
2022-11-13T01:53:55.682Z,5.03
2022-11-13T01:56:22.751Z,5.15
2022-11-13T01:58:55.159Z,4.90
2022-11-13T02:01:21.789Z,4.43
2022-11-13T02:03:48.414Z,4.07
2022-11-13T02:06:15.186Z,4.47
2022-11-13T02:08:41.919Z,4.28
2022-11-13T02:11:08.542Z,4.55
2022-11-13T02:13:37.884Z,3.67
2022-11-13T02:16:07.295Z,4.07
2022-11-13T02:18:35.163Z,4.00
2022-11-13T02:21:17.003Z,4.03
2022-11-13T02:24:21.378Z,3.67
2022-11-13T02:26:50.003Z,4.00
2022-11-13T02:29:16.567Z,3.53
2022-11-13T02:31:43.150Z,3.20
2022-11-13T02:34:09.722Z,3.50
2022-11-13T02:36:36.787Z,3.47
2022-11-13T02:39:06.849Z,3.20
2022-11-13T02:41:33.383Z,3.50
2022-11-13T02:43:59.986Z,3.50
2022-11-13T02:46:26.611Z,3.03
2022-11-13T02:48:53.143Z,3.20
2022-11-13T02:51:19.708Z,3.47
2022-11-13T02:53:46.259Z,3.45
2022-11-13T02:56:12.926Z,3.13
2022-11-13T02:58:39.487Z,3.67
2022-11-13T03:01:06.191Z,2.72
2022-11-13T03:03:56.637Z,2.50
2022-11-13T03:06:19.376Z,2.90
2022-11-13T03:08:45.918Z,3.00
2022-11-13T03:11:12.876Z,2.70
2022-11-13T03:13:39.739Z,2.63
2022-11-13T03:16:14.835Z,3.10
2022-11-13T03:18:41.518Z,2.90
2022-11-13T03:21:13.380Z,2.97
2022-11-13T03:23:41.855Z,3.30
2022-11-13T03:28:37.101Z,3.28
2022-11-13T03:31:04.239Z,3.28
2022-11-13T03:33:31.449Z,2.95
2022-11-13T03:35:58.250Z,3.00
2022-11-13T03:38:25.058Z,3.20
2022-11-13T03:40:51.930Z,3.35
2022-11-13T03:43:18.619Z,3.05
2022-11-13T03:45:46.674Z,2.60
2022-11-13T03:48:14.481Z,3.10
2022-11-13T03:50:45.562Z,2.72
2022-11-13T03:53:13.010Z,3.45
2022-11-13T03:55:39.723Z,3.80
2022-11-13T03:58:06.540Z,3.20
2022-11-13T04:00:33.383Z,3.45
2022-11-13T04:03:00.082Z,4.07
2022-11-13T04:05:26.924Z,3.72
2022-11-13T04:07:53.648Z,4.32
2022-11-13T04:10:20.203Z,4.18
2022-11-13T04:12:46.755Z,4.38
2022-11-13T04:15:13.564Z,3.95
2022-11-13T04:17:40.226Z,4.03
2022-11-13T04:20:07.547Z,3.88
2022-11-13T04:22:34.342Z,4.13
2022-11-13T04:25:00.915Z,4.15
2022-11-13T04:27:27.461Z,4.70
2022-11-13T04:29:54.063Z,5.00
2022-11-13T04:32:20.638Z,4.95
2022-11-13T04:34:47.355Z,4.30
2022-11-13T04:37:14.060Z,4.68
2022-11-13T04:39:40.620Z,4.65
2022-11-13T04:42:25.831Z,4.07
2022-11-13T04:44:52.379Z,3.85
2022-11-13T04:47:18.931Z,4.28
2022-11-13T04:49:45.526Z,4.07
2022-11-13T04:52:12.933Z,3.65
2022-11-13T04:54:40.234Z,3.78
2022-11-13T04:57:06.858Z,3.80
2022-11-13T04:59:33.437Z,3.70
2022-11-13T05:02:00.031Z,3.55
2022-11-13T05:04:26.691Z,3.60
2022-11-13T05:06:53.331Z,3.42
2022-11-13T05:09:20.003Z,3.78
2022-11-13T05:11:46.575Z,4.18
2022-11-13T05:14:13.502Z,3.55
2022-11-13T05:16:40.358Z,3.92
2022-11-13T05:19:07.075Z,3.78
2022-11-13T05:21:35.167Z,4.65
2022-11-13T05:24:01.865Z,4.07
2022-11-13T05:26:28.710Z,4.50
2022-11-13T05:28:59.551Z,4.13
2022-11-13T05:31:27.023Z,3.70
2022-11-13T05:33:53.863Z,3.90
2022-11-13T05:36:21.355Z,4.93
2022-11-13T05:38:47.957Z,4.88
2022-11-13T05:41:17.410Z,4.13
2022-11-13T05:43:44.555Z,4.47
2022-11-13T05:46:14.154Z,4.05
2022-11-13T05:48:41.139Z,3.58
2022-11-13T05:51:09.044Z,3.67
2022-11-13T05:53:36.526Z,3.65
2022-11-13T05:56:09.967Z,3.37
2022-11-13T05:58:37.884Z,3.75
2022-11-13T06:01:11.203Z,3.40
2022-11-13T06:03:38.049Z,3.38
2022-11-13T06:06:06.246Z,3.65
2022-11-13T06:08:32.857Z,4.35
2022-11-13T06:11:04.780Z,3.88
2022-11-13T06:13:31.398Z,3.63
2022-11-13T06:16:10.054Z,3.83
2022-11-13T06:18:37.418Z,4.13
2022-11-13T06:21:09.422Z,3.33
2022-11-13T06:23:37.873Z,4.03
2022-11-13T06:28:32.780Z,3.55
2022-11-13T06:31:07.615Z,3.55
2022-11-13T06:33:34.849Z,3.30
2022-11-13T06:36:03.469Z,3.55
2022-11-13T06:38:34.703Z,3.53
2022-11-13T06:41:01.862Z,4.05
2022-11-13T06:43:28.786Z,2.90
2022-11-13T06:45:56.130Z,3.70
2022-11-13T06:48:23.343Z,3.25
2022-11-13T06:50:51.054Z,3.00
2022-11-13T06:53:17.814Z,3.20
2022-11-13T06:55:49.440Z,2.80
2022-11-13T06:58:16.271Z,3.10
2022-11-13T07:00:43.890Z,3.15
2022-11-13T07:03:18.699Z,3.30
2022-11-13T07:05:45.463Z,2.78
2022-11-13T07:08:13.252Z,2.70
2022-11-13T07:10:40.035Z,2.95
2022-11-13T07:13:07.022Z,2.80
2022-11-13T07:15:37.531Z,2.50
2022-11-13T07:18:05.095Z,2.75
2022-11-13T07:20:32.087Z,2.80
2022-11-13T07:23:00.706Z,2.58
2022-11-13T07:25:27.814Z,2.75
2022-11-13T07:27:54.361Z,2.47
2022-11-13T07:30:21.100Z,2.63
2022-11-13T07:32:47.658Z,2.60
2022-11-13T07:35:14.453Z,3.10
2022-11-13T07:37:41.033Z,2.72
2022-11-13T07:40:08.110Z,2.40
2022-11-13T07:42:34.761Z,2.55
2022-11-13T07:45:01.355Z,2.40
2022-11-13T07:47:27.970Z,2.30
2022-11-13T07:49:59.713Z,2.58
2022-11-13T07:52:30.335Z,2.40
2022-11-13T07:54:56.879Z,2.45
2022-11-13T07:57:23.432Z,2.30
2022-11-13T07:59:50.025Z,2.72
2022-11-13T08:02:17.025Z,2.50
2022-11-13T08:04:43.654Z,2.22
2022-11-13T08:07:12.697Z,2.20
2022-11-13T08:09:39.535Z,2.72
2022-11-13T08:12:06.346Z,1.98
2022-11-13T08:14:32.889Z,2.45
2022-11-13T08:16:59.414Z,2.50
2022-11-13T08:19:25.992Z,2.08
2022-11-13T08:21:52.691Z,2.30
2022-11-13T08:24:19.227Z,2.60
2022-11-13T08:26:45.818Z,2.72
2022-11-13T08:29:12.432Z,2.50
2022-11-13T08:31:38.998Z,2.80
2022-11-13T08:34:05.544Z,2.70
2022-11-13T08:36:32.099Z,2.90
2022-11-13T08:38:58.693Z,2.60
2022-11-13T08:41:25.250Z,2.60
2022-11-13T08:43:51.791Z,2.63
2022-11-13T08:46:18.340Z,2.45
2022-11-13T08:48:44.903Z,3.00
2022-11-13T08:51:11.482Z,4.00
2022-11-13T08:53:38.584Z,3.13
2022-11-13T08:56:05.407Z,3.38
2022-11-13T08:58:32.371Z,2.50
2022-11-13T09:01:03.115Z,3.10
2022-11-13T09:03:29.943Z,3.85
2022-11-13T09:05:56.561Z,4.18
2022-11-13T09:08:23.110Z,4.22
2022-11-13T09:10:49.721Z,3.80
2022-11-13T09:13:16.383Z,4.25
2022-11-13T09:15:43.168Z,5.43
2022-11-13T09:18:10.430Z,7.30
2022-11-13T09:20:37.334Z,5.03
2022-11-13T09:23:06.613Z,3.85
2022-11-13T09:25:37.594Z,3.80
2022-11-13T09:28:05.276Z,3.80
2022-11-13T09:30:31.894Z,4.20
2022-11-13T09:32:59.853Z,3.08
2022-11-13T09:35:45.417Z,2.78
2022-11-13T09:38:16.002Z,3.15
2022-11-13T09:40:57.859Z,3.20
2022-11-13T09:43:35.324Z,3.00
2022-11-13T09:46:14.641Z,2.83
2022-11-13T09:48:46.704Z,3.50
2022-11-13T09:51:16.562Z,2.80
2022-11-13T09:53:44.274Z,2.80
2022-11-13T09:56:22.626Z,2.40
2022-11-13T09:58:54.706Z,2.45
2022-11-13T10:01:36.833Z,2.67
2022-11-13T10:04:09.786Z,2.78
2022-11-13T10:06:57.760Z,2.33
2022-11-13T10:10:01.379Z,2.10
2022-11-13T10:12:30.446Z,2.40
2022-11-13T10:15:01.440Z,2.63
2022-11-13T10:17:56.624Z,1.83
2022-11-13T10:20:38.635Z,2.10
2022-11-13T10:23:12.380Z,1.80
2022-11-13T10:25:39.255Z,1.83
2022-11-13T10:28:43.231Z,1.50
2022-11-13T10:30:59.190Z,1.77
2022-11-13T10:33:26.148Z,1.70
2022-11-13T10:36:23.975Z,1.80
2022-11-13T10:38:58.749Z,1.50
2022-11-13T10:41:25.390Z,1.75
2022-11-13T10:43:56.242Z,1.60
2022-11-13T10:46:25.540Z,1.88
2022-11-13T10:48:52.389Z,2.08
2022-11-13T10:51:26.596Z,2.22
2022-11-13T10:53:53.995Z,3.10
2022-11-13T10:56:22.665Z,2.90
2022-11-13T10:59:11.758Z,2.00
2022-11-13T11:01:39.145Z,1.88
2022-11-13T11:04:07.118Z,1.85
2022-11-13T11:07:17.902Z,1.98
2022-11-13T11:09:33.547Z,2.03
2022-11-13T11:12:23.143Z,1.60
2022-11-13T11:15:01.334Z,1.67
2022-11-13T11:17:32.266Z,2.08
2022-11-13T11:20:05.387Z,2.22
2022-11-13T11:22:34.954Z,1.88
2022-11-13T11:25:17.049Z,2.33
2022-11-13T11:27:48.051Z,1.88
2022-11-13T11:30:21.156Z,2.10
2022-11-13T11:33:03.383Z,1.95
2022-11-13T11:35:40.209Z,1.67
2022-11-13T11:38:27.171Z,1.85
2022-11-13T11:40:59.619Z,1.80
2022-11-13T11:43:44.674Z,1.73
2022-11-13T11:46:16.452Z,2.00
2022-11-13T11:48:43.161Z,2.03
2022-11-13T11:51:41.224Z,2.80
2022-11-13T11:54:13.804Z,2.58
2022-11-13T11:56:48.276Z,2.00
2022-11-13T11:59:36.796Z,2.58
2022-11-13T12:02:06.241Z,2.28
2022-11-13T12:04:55.969Z,2.28
2022-11-13T12:07:39.971Z,2.15
2022-11-13T12:10:24.676Z,1.90
2022-11-13T12:13:03.218Z,1.95
2022-11-13T12:16:07.182Z,1.73
2022-11-13T12:18:46.659Z,1.80
2022-11-13T12:21:42.015Z,2.00
2022-11-13T12:24:30.365Z,1.92
2022-11-13T12:29:44.488Z,1.95
2022-11-13T12:32:46.392Z,1.90
2022-11-13T12:35:24.097Z,2.90
2022-11-13T12:38:34.487Z,2.47
2022-11-13T12:41:10.053Z,3.10
2022-11-13T12:44:07.914Z,3.45
2022-11-13T12:46:36.472Z,3.80
2022-11-13T12:51:41.726Z,3.28
2022-11-13T12:54:10.022Z,3.33
2022-11-13T12:56:36.602Z,3.58
2022-11-13T12:59:33.823Z,3.78
2022-11-13T13:02:06.563Z,3.40
2022-11-13T13:04:53.123Z,3.70
2022-11-13T13:07:27.628Z,3.20
2022-11-13T13:10:30.481Z,3.17
2022-11-13T13:13:24.448Z,3.70
2022-11-13T13:15:56.567Z,3.78
2022-11-13T13:18:37.542Z,3.92
2022-11-13T13:21:10.497Z,4.22
2022-11-13T13:23:41.283Z,3.55
2022-11-13T13:26:13.739Z,3.72
2022-11-13T13:28:42.245Z,3.40
2022-11-13T13:34:13.954Z,3.58
2022-11-13T13:36:52.548Z,3.97
2022-11-13T13:39:19.097Z,4.53
2022-11-13T13:42:04.214Z,4.45
2022-11-13T13:44:37.923Z,5.28
2022-11-13T13:47:30.587Z,4.72
2022-11-13T13:49:57.312Z,5.00
2022-11-13T13:52:30.584Z,5.20
2022-11-13T13:54:58.066Z,4.75
2022-11-13T13:57:25.841Z,4.93
2022-11-13T13:59:52.966Z,5.00
2022-11-13T14:02:23.984Z,5.25
2022-11-13T14:04:54.766Z,4.45
2022-11-13T14:07:26.119Z,4.60
2022-11-13T14:10:14.406Z,4.18
2022-11-13T14:12:42.843Z,4.43
2022-11-13T14:15:31.245Z,4.20
2022-11-13T14:18:08.406Z,4.22
2022-11-13T14:20:51.133Z,4.53
2022-11-13T14:23:25.048Z,4.75
2022-11-13T14:25:52.058Z,4.80
2022-11-13T14:28:23.710Z,4.75
2022-11-13T14:30:55.979Z,5.18
2022-11-13T14:33:30.804Z,4.72
2022-11-13T14:35:58.430Z,4.85
2022-11-13T14:38:28.526Z,5.57
2022-11-13T14:40:55.644Z,6.35
2022-11-13T14:43:28.258Z,5.47
2022-11-13T14:46:05.930Z,5.80
2022-11-13T14:48:34.470Z,5.57
2022-11-13T14:53:39.804Z,4.88
2022-11-13T14:56:11.538Z,6.20
2022-11-13T14:58:43.658Z,5.90
2022-11-13T15:01:18.635Z,5.90
2022-11-13T15:03:46.237Z,6.25
2022-11-13T15:06:16.133Z,6.20
2022-11-13T15:08:43.884Z,6.60
2022-11-13T15:11:14.461Z,6.50
2022-11-13T15:13:41.322Z,7.38
2022-11-13T15:16:18.866Z,7.53
2022-11-13T15:18:50.994Z,7.53
2022-11-13T15:21:18.551Z,8.38
2022-11-13T15:23:45.142Z,8.90
2022-11-13T15:26:12.259Z,10.50
2022-11-13T15:28:39.837Z,8.50
2022-11-13T15:31:18.143Z,8.65
2022-11-13T15:33:45.511Z,9.00
2022-11-13T15:36:12.074Z,9.10
2022-11-13T15:38:38.635Z,10.15
2022-11-13T15:41:12.276Z,9.52
2022-11-13T15:43:40.650Z,9.55
2022-11-13T15:46:14.681Z,9.88
2022-11-13T15:48:41.476Z,11.50
2022-11-13T15:51:23.771Z,9.63
2022-11-13T15:54:00.620Z,11.57
2022-11-13T15:56:27.694Z,10.90
2022-11-13T15:58:54.263Z,12.23
2022-11-13T16:01:21.169Z,10.88
2022-11-13T16:03:48.083Z,11.93
2022-11-13T16:06:20.282Z,13.10
2022-11-13T16:08:47.609Z,12.57
2022-11-13T16:11:18.588Z,13.30
2022-11-13T16:13:45.719Z,14.18
2022-11-13T16:16:23.328Z,14.18
2022-11-13T16:18:51.895Z,15.57
2022-11-13T16:21:21.551Z,15.23
2022-11-13T16:23:48.171Z,15.98
2022-11-13T16:26:20.010Z,15.88
2022-11-13T16:29:12.125Z,16.30
2022-11-13T16:31:34.089Z,16.60
2022-11-13T16:34:00.651Z,16.65
2022-11-13T16:36:27.803Z,16.42
2022-11-13T16:38:55.666Z,16.50
2022-11-13T16:41:23.786Z,18.25
2022-11-13T16:43:50.342Z,18.50
2022-11-13T16:46:20.584Z,17.25
2022-11-13T16:48:50.241Z,18.02
2022-11-13T16:51:16.901Z,16.25
2022-11-13T16:53:43.661Z,17.20
2022-11-13T16:56:28.130Z,19.42
2022-11-13T16:58:55.508Z,18.80
2022-11-13T17:01:22.658Z,20.27
2022-11-13T17:03:49.600Z,20.02
2022-11-13T17:06:36.724Z,20.13
2022-11-13T17:09:04.415Z,21.40
2022-11-13T17:11:32.532Z,20.77
2022-11-13T17:14:00.585Z,19.75
2022-11-13T17:16:29.127Z,22.08
2022-11-13T17:18:56.639Z,21.60
2022-11-13T17:21:25.488Z,22.67
2022-11-13T17:24:01.145Z,21.75
2022-11-13T17:26:28.984Z,21.30
2022-11-13T17:28:55.637Z,21.33
2022-11-13T17:31:22.216Z,20.58
2022-11-13T17:33:48.819Z,21.58
2022-11-13T17:36:15.447Z,20.23
2022-11-13T17:38:42.073Z,20.02
2022-11-13T17:41:11.094Z,20.92
2022-11-13T17:43:38.721Z,21.20
2022-11-13T17:46:06.066Z,19.50
2022-11-13T17:48:33.657Z,19.17
2022-11-13T17:51:05.362Z,20.03
2022-11-13T17:53:32.311Z,19.48
2022-11-13T17:56:00.975Z,20.75
2022-11-13T17:58:29.047Z,17.88
2022-11-13T18:01:04.251Z,20.35
2022-11-13T18:03:31.649Z,21.08
2022-11-13T18:05:58.386Z,18.58
2022-11-13T18:08:24.928Z,19.83
2022-11-13T18:10:51.546Z,20.73
2022-11-13T18:13:18.126Z,20.50
2022-11-13T18:15:44.691Z,20.58
2022-11-13T18:18:11.433Z,20.50
2022-11-13T18:20:39.906Z,19.33
2022-11-13T18:25:39.543Z,19.52
2022-11-13T18:28:06.488Z,20.23
2022-11-13T18:30:33.128Z,21.33
2022-11-13T18:32:59.744Z,19.98
2022-11-13T18:35:26.342Z,19.75
2022-11-13T18:37:53.186Z,21.33
2022-11-13T18:40:19.794Z,21.50
2022-11-13T18:42:46.361Z,19.85
2022-11-13T18:45:16.320Z,20.45
2022-11-13T18:47:42.919Z,19.33
2022-11-13T18:50:09.609Z,19.52
2022-11-13T18:52:36.177Z,20.40
2022-11-13T18:55:02.853Z,20.63
2022-11-13T18:57:29.641Z,18.17
2022-11-13T18:59:57.771Z,20.55
2022-11-13T19:02:24.372Z,19.50
2022-11-13T19:04:50.987Z,19.45
2022-11-13T19:07:17.627Z,19.48
2022-11-13T19:09:46.071Z,19.80
2022-11-13T19:12:12.786Z,19.30
2022-11-13T19:14:39.337Z,20.55
2022-11-13T19:17:05.988Z,19.85
2022-11-13T19:19:32.561Z,19.58
2022-11-13T19:21:59.211Z,18.48
2022-11-13T19:24:25.757Z,21.27
2022-11-13T19:26:52.315Z,22.17
2022-11-13T19:29:20.245Z,19.27
2022-11-13T19:31:48.532Z,19.88
2022-11-13T19:34:15.406Z,19.08
2022-11-13T19:36:44.898Z,21.20
2022-11-13T19:39:11.479Z,19.20
2022-11-13T19:41:38.143Z,20.58
2022-11-13T19:44:06.508Z,20.48
2022-11-13T19:46:34.093Z,21.23
2022-11-13T19:49:00.746Z,20.80
2022-11-13T19:51:27.758Z,21.42
2022-11-13T19:53:59.531Z,19.23
2022-11-13T19:56:28.375Z,20.05
2022-11-13T19:58:55.816Z,20.17
2022-11-13T20:01:25.083Z,21.15
2022-11-13T20:04:02.533Z,18.83
2022-11-13T20:06:31.954Z,20.52
2022-11-13T20:08:59.458Z,21.35
2022-11-13T20:11:26.006Z,21.23
2022-11-13T20:13:53.142Z,19.40
2022-11-13T20:16:22.025Z,22.02
2022-11-13T20:18:48.869Z,20.70
2022-11-13T20:21:16.614Z,20.48
2022-11-13T20:23:43.770Z,21.20
2022-11-13T20:26:13.597Z,20.92
2022-11-13T20:28:40.226Z,20.48
2022-11-13T20:31:16.492Z,18.25
2022-11-13T20:33:43.653Z,20.20
2022-11-13T20:36:10.556Z,20.55
2022-11-13T20:38:37.528Z,19.02
2022-11-13T20:41:08.334Z,20.48
2022-11-13T20:43:34.871Z,20.13
2022-11-13T20:46:09.790Z,19.77
2022-11-13T20:48:36.674Z,21.90
2022-11-13T20:51:07.242Z,21.15
2022-11-13T20:53:34.591Z,20.83
2022-11-13T20:56:01.181Z,20.15
2022-11-13T20:58:28.204Z,21.48
2022-11-13T21:01:01.718Z,21.58
2022-11-13T21:03:28.362Z,20.00
2022-11-13T21:05:54.928Z,20.65
2022-11-13T21:08:21.600Z,19.48
2022-11-13T21:10:48.147Z,21.13
2022-11-13T21:13:15.872Z,20.88
2022-11-13T21:15:42.953Z,21.55
2022-11-13T21:18:09.483Z,21.65
2022-11-13T21:20:36.853Z,21.38
2022-11-13T21:23:03.471Z,20.73
2022-11-13T21:25:30.257Z,21.73
2022-11-13T21:27:56.994Z,21.55
2022-11-13T21:30:23.960Z,22.05
2022-11-13T21:32:50.544Z,22.42
2022-11-13T21:35:22.373Z,19.98
2022-11-13T21:37:49.356Z,21.58
2022-11-13T21:40:16.129Z,20.63
2022-11-13T21:42:42.834Z,21.25
2022-11-13T21:45:09.966Z,21.35
2022-11-13T21:47:37.323Z,20.65
2022-11-13T21:50:05.428Z,21.05
2022-11-13T21:52:32.059Z,20.90
2022-11-13T21:54:58.595Z,21.42
2022-11-13T21:57:27.074Z,21.73
2022-11-13T22:02:20.148Z,23.88
2022-11-13T22:04:46.716Z,22.40
2022-11-13T22:07:14.245Z,21.33
2022-11-13T22:09:40.933Z,21.47
2022-11-13T22:12:08.909Z,21.80
2022-11-13T22:14:35.527Z,22.92
2022-11-13T22:17:03.267Z,22.77
2022-11-13T22:19:34.713Z,23.02
2022-11-13T22:22:02.594Z,23.15
2022-11-13T22:24:29.720Z,21.70
2022-11-13T22:26:56.339Z,22.27
2022-11-13T22:29:22.965Z,22.77
2022-11-13T22:31:49.525Z,24.05
2022-11-13T22:34:16.107Z,23.17
2022-11-13T22:36:42.654Z,24.25
2022-11-13T22:39:09.342Z,21.10
2022-11-13T22:41:36.530Z,26.05
2022-11-13T22:44:06.282Z,23.13
2022-11-13T22:46:34.592Z,22.05
2022-11-13T22:49:04.995Z,22.23
2022-11-13T22:51:35.222Z,20.85
2022-11-13T22:54:04.700Z,23.45
2022-11-13T22:56:32.267Z,20.80
2022-11-13T22:59:00.715Z,21.53
2022-11-13T23:03:55.789Z,19.63
2022-11-13T23:06:27.416Z,21.70
2022-11-13T23:08:54.866Z,22.27
2022-11-13T23:11:27.183Z,21.75
2022-11-13T23:13:56.527Z,23.02
2022-11-13T23:16:24.702Z,20.42
2022-11-13T23:18:52.108Z,21.40
2022-11-13T23:21:18.975Z,23.23
2022-11-13T23:23:46.032Z,20.48
2022-11-13T23:26:13.863Z,21.65
2022-11-13T23:28:40.919Z,21.15
2022-11-13T23:31:08.183Z,20.60
2022-11-13T23:33:35.169Z,21.38
2022-11-13T23:36:02.050Z,20.67
2022-11-13T23:38:28.893Z,21.15
2022-11-13T23:40:59.987Z,19.58
2022-11-13T23:43:47.702Z,19.92
2022-11-13T23:46:14.205Z,21.00
2022-11-13T23:48:40.770Z,20.88
2022-11-13T23:51:07.492Z,21.63
2022-11-13T23:53:34.112Z,18.08
2022-11-13T23:56:00.896Z,21.05
2022-11-13T23:58:27.871Z,19.52
